sensor_id;sensor_type;location;lat;lon;timestamp;P1;durP1;ratioP1;P2;durP2;ratioP2
66830;SDS011;53739;44.224;22.528;2022-08-02T00:01:19;4.03;;;2.65;;
66830;SDS011;53739;44.224;22.528;2022-08-02T00:03:45;6.55;;;2.65;;
66830;SDS011;53739;44.224;22.528;2022-08-02T00:06:11;5.20;;;2.55;;
66830;SDS011;53739;44.224;22.528;2022-08-02T00:08:37;6.25;;;2.53;;
66830;SDS011;53739;44.224;22.528;2022-08-02T00:11:04;5.75;;;2.55;;
66830;SDS011;53739;44.224;22.528;2022-08-02T00:13:30;5.50;;;2.38;;
66830;SDS011;53739;44.224;22.528;2022-08-02T00:15:56;6.35;;;2.72;;
66830;SDS011;53739;44.224;22.528;2022-08-02T00:18:22;9.27;;;2.50;;
66830;SDS011;53739;44.224;22.528;2022-08-02T00:20:48;4.47;;;2.00;;
66830;SDS011;53739;44.224;22.528;2022-08-02T00:23:14;4.25;;;2.80;;
66830;SDS011;53739;44.224;22.528;2022-08-02T00:25:40;5.78;;;2.40;;
66830;SDS011;53739;44.224;22.528;2022-08-02T00:28:05;7.72;;;2.40;;
66830;SDS011;53739;44.224;22.528;2022-08-02T00:30:31;3.20;;;2.40;;
66830;SDS011;53739;44.224;22.528;2022-08-02T00:32:57;5.00;;;2.90;;
66830;SDS011;53739;44.224;22.528;2022-08-02T00:35:23;4.43;;;2.85;;
66830;SDS011;53739;44.224;22.528;2022-08-02T00:37:49;6.40;;;2.88;;
66830;SDS011;53739;44.224;22.528;2022-08-02T00:40:19;4.10;;;2.70;;
66830;SDS011;53739;44.224;22.528;2022-08-02T00:42:46;5.50;;;2.80;;
66830;SDS011;53739;44.224;22.528;2022-08-02T00:45:12;4.35;;;2.20;;
66830;SDS011;53739;44.224;22.528;2022-08-02T00:47:38;6.80;;;2.60;;
66830;SDS011;53739;44.224;22.528;2022-08-02T00:50:03;5.85;;;2.55;;
66830;SDS011;53739;44.224;22.528;2022-08-02T00:52:30;3.35;;;2.30;;
66830;SDS011;53739;44.224;22.528;2022-08-02T00:54:56;5.93;;;2.28;;
66830;SDS011;53739;44.224;22.528;2022-08-02T00:57:21;5.20;;;2.65;;
66830;SDS011;53739;44.224;22.528;2022-08-02T00:59:47;5.38;;;2.47;;
66830;SDS011;53739;44.224;22.528;2022-08-02T01:02:13;4.13;;;2.33;;
66830;SDS011;53739;44.224;22.528;2022-08-02T01:04:39;3.97;;;2.67;;
66830;SDS011;53739;44.224;22.528;2022-08-02T01:07:05;4.93;;;2.88;;
66830;SDS011;53739;44.224;22.528;2022-08-02T01:09:31;5.57;;;2.95;;
66830;SDS011;53739;44.224;22.528;2022-08-02T01:11:57;3.35;;;2.58;;
66830;SDS011;53739;44.224;22.528;2022-08-02T01:14:23;4.45;;;2.28;;
66830;SDS011;53739;44.224;22.528;2022-08-02T01:17:05;4.90;;;3.00;;
66830;SDS011;53739;44.224;22.528;2022-08-02T01:19:42;6.90;;;2.70;;
66830;SDS011;53739;44.224;22.528;2022-08-02T01:25:02;4.85;;;2.92;;
66830;SDS011;53739;44.224;22.528;2022-08-02T01:30:54;5.93;;;2.85;;
66830;SDS011;53739;44.224;22.528;2022-08-02T01:33:25;5.22;;;2.53;;
66830;SDS011;53739;44.224;22.528;2022-08-02T01:36:04;4.10;;;2.72;;
66830;SDS011;53739;44.224;22.528;2022-08-02T01:38:36;9.82;;;2.85;;
66830;SDS011;53739;44.224;22.528;2022-08-02T01:41:07;4.20;;;2.53;;
66830;SDS011;53739;44.224;22.528;2022-08-02T01:43:37;5.75;;;2.90;;
66830;SDS011;53739;44.224;22.528;2022-08-02T01:46:06;3.95;;;2.65;;
66830;SDS011;53739;44.224;22.528;2022-08-02T01:48:33;7.78;;;3.00;;
66830;SDS011;53739;44.224;22.528;2022-08-02T01:51:00;4.72;;;2.67;;
66830;SDS011;53739;44.224;22.528;2022-08-02T01:53:28;4.45;;;3.00;;
66830;SDS011;53739;44.224;22.528;2022-08-02T01:55:57;3.60;;;2.65;;
66830;SDS011;53739;44.224;22.528;2022-08-02T01:58:28;4.43;;;2.40;;
66830;SDS011;53739;44.224;22.528;2022-08-02T02:00:58;5.85;;;2.55;;
66830;SDS011;53739;44.224;22.528;2022-08-02T02:03:26;4.57;;;3.05;;
66830;SDS011;53739;44.224;22.528;2022-08-02T02:05:56;4.30;;;2.67;;
66830;SDS011;53739;44.224;22.528;2022-08-02T02:08:32;3.80;;;2.70;;
66830;SDS011;53739;44.224;22.528;2022-08-02T02:11:01;4.97;;;2.83;;
66830;SDS011;53739;44.224;22.528;2022-08-02T02:13:28;4.80;;;2.75;;
66830;SDS011;53739;44.224;22.528;2022-08-02T02:15:56;4.82;;;2.78;;
66830;SDS011;53739;44.224;22.528;2022-08-02T02:18:26;4.60;;;2.83;;
66830;SDS011;53739;44.224;22.528;2022-08-02T02:20:53;5.20;;;3.17;;
66830;SDS011;53739;44.224;22.528;2022-08-02T02:23:20;7.50;;;3.25;;
66830;SDS011;53739;44.224;22.528;2022-08-02T02:25:46;6.78;;;2.75;;
66830;SDS011;53739;44.224;22.528;2022-08-02T02:33:14;4.93;;;2.95;;
66830;SDS011;53739;44.224;22.528;2022-08-02T02:35:42;4.32;;;3.00;;
66830;SDS011;53739;44.224;22.528;2022-08-02T02:38:14;9.05;;;2.63;;
66830;SDS011;53739;44.224;22.528;2022-08-02T02:40:44;6.32;;;3.00;;
66830;SDS011;53739;44.224;22.528;2022-08-02T02:43:11;3.60;;;2.70;;
66830;SDS011;53739;44.224;22.528;2022-08-02T02:45:39;7.28;;;2.92;;
66830;SDS011;53739;44.224;22.528;2022-08-02T02:48:06;8.50;;;2.70;;
66830;SDS011;53739;44.224;22.528;2022-08-02T02:50:33;5.57;;;2.78;;
66830;SDS011;53739;44.224;22.528;2022-08-02T02:53:01;4.30;;;2.72;;
66830;SDS011;53739;44.224;22.528;2022-08-02T02:55:27;8.93;;;4.70;;
66830;SDS011;53739;44.224;22.528;2022-08-02T02:57:54;8.90;;;4.10;;
66830;SDS011;53739;44.224;22.528;2022-08-02T03:00:21;6.88;;;3.85;;
66830;SDS011;53739;44.224;22.528;2022-08-02T03:03:07;6.60;;;3.53;;
66830;SDS011;53739;44.224;22.528;2022-08-02T03:05:34;5.57;;;3.65;;
66830;SDS011;53739;44.224;22.528;2022-08-02T03:08:00;7.97;;;3.08;;
66830;SDS011;53739;44.224;22.528;2022-08-02T03:10:26;5.95;;;3.50;;
66830;SDS011;53739;44.224;22.528;2022-08-02T03:12:52;5.82;;;3.20;;
66830;SDS011;53739;44.224;22.528;2022-08-02T03:15:20;8.70;;;4.15;;
66830;SDS011;53739;44.224;22.528;2022-08-02T03:17:47;5.93;;;3.05;;
66830;SDS011;53739;44.224;22.528;2022-08-02T03:20:15;7.57;;;3.78;;
66830;SDS011;53739;44.224;22.528;2022-08-02T03:22:43;7.65;;;3.50;;
66830;SDS011;53739;44.224;22.528;2022-08-02T03:25:09;5.97;;;3.25;;
66830;SDS011;53739;44.224;22.528;2022-08-02T03:27:36;6.15;;;3.90;;
66830;SDS011;53739;44.224;22.528;2022-08-02T03:30:03;5.78;;;3.70;;
66830;SDS011;53739;44.224;22.528;2022-08-02T03:32:30;5.28;;;3.47;;
66830;SDS011;53739;44.224;22.528;2022-08-02T03:34:57;10.25;;;4.28;;
66830;SDS011;53739;44.224;22.528;2022-08-02T03:37:23;6.05;;;3.40;;
66830;SDS011;53739;44.224;22.528;2022-08-02T03:39:51;5.78;;;3.45;;
66830;SDS011;53739;44.224;22.528;2022-08-02T03:42:18;6.65;;;3.40;;
66830;SDS011;53739;44.224;22.528;2022-08-02T03:44:45;9.63;;;5.35;;
66830;SDS011;53739;44.224;22.528;2022-08-02T03:47:13;10.32;;;5.75;;
66830;SDS011;53739;44.224;22.528;2022-08-02T03:49:40;12.98;;;6.05;;
66830;SDS011;53739;44.224;22.528;2022-08-02T03:52:07;6.05;;;5.00;;
66830;SDS011;53739;44.224;22.528;2022-08-02T03:54:33;10.50;;;5.38;;
66830;SDS011;53739;44.224;22.528;2022-08-02T03:56:59;8.82;;;5.90;;
66830;SDS011;53739;44.224;22.528;2022-08-02T03:59:25;7.75;;;5.13;;
66830;SDS011;53739;44.224;22.528;2022-08-02T04:01:51;8.00;;;4.38;;
66830;SDS011;53739;44.224;22.528;2022-08-02T04:04:17;8.40;;;4.28;;
66830;SDS011;53739;44.224;22.528;2022-08-02T04:06:42;10.50;;;5.15;;
66830;SDS011;53739;44.224;22.528;2022-08-02T04:09:08;8.98;;;5.00;;
66830;SDS011;53739;44.224;22.528;2022-08-02T04:11:34;7.85;;;5.25;;
66830;SDS011;53739;44.224;22.528;2022-08-02T04:14:03;8.38;;;5.53;;
66830;SDS011;53739;44.224;22.528;2022-08-02T04:21:55;5.40;;;3.73;;
66830;SDS011;53739;44.224;22.528;2022-08-02T04:24:25;7.43;;;3.53;;
66830;SDS011;53739;44.224;22.528;2022-08-02T04:26:56;5.97;;;3.05;;
66830;SDS011;53739;44.224;22.528;2022-08-02T04:29:24;6.25;;;3.15;;
66830;SDS011;53739;44.224;22.528;2022-08-02T04:31:51;5.25;;;3.13;;
66830;SDS011;53739;44.224;22.528;2022-08-02T04:34:18;5.13;;;3.30;;
66830;SDS011;53739;44.224;22.528;2022-08-02T04:36:45;6.95;;;4.00;;
66830;SDS011;53739;44.224;22.528;2022-08-02T04:39:13;9.55;;;4.57;;
66830;SDS011;53739;44.224;22.528;2022-08-02T04:41:43;12.35;;;4.97;;
66830;SDS011;53739;44.224;22.528;2022-08-02T04:44:10;6.25;;;4.55;;
66830;SDS011;53739;44.224;22.528;2022-08-02T04:46:37;7.75;;;4.63;;
66830;SDS011;53739;44.224;22.528;2022-08-02T04:49:03;5.88;;;4.13;;
66830;SDS011;53739;44.224;22.528;2022-08-02T04:51:29;6.30;;;4.05;;
66830;SDS011;53739;44.224;22.528;2022-08-02T04:53:58;8.23;;;3.78;;
66830;SDS011;53739;44.224;22.528;2022-08-02T04:56:23;6.53;;;3.60;;
66830;SDS011;53739;44.224;22.528;2022-08-02T04:58:49;6.88;;;3.33;;
66830;SDS011;53739;44.224;22.528;2022-08-02T05:01:16;4.65;;;3.35;;
66830;SDS011;53739;44.224;22.528;2022-08-02T05:03:42;5.45;;;2.97;;
66830;SDS011;53739;44.224;22.528;2022-08-02T05:06:08;3.70;;;2.95;;
66830;SDS011;53739;44.224;22.528;2022-08-02T05:08:34;5.90;;;2.88;;
66830;SDS011;53739;44.224;22.528;2022-08-02T05:11:00;5.80;;;3.22;;
66830;SDS011;53739;44.224;22.528;2022-08-02T05:13:26;5.75;;;2.88;;
66830;SDS011;53739;44.224;22.528;2022-08-02T05:15:53;5.70;;;2.72;;
66830;SDS011;53739;44.224;22.528;2022-08-02T05:18:19;5.68;;;2.90;;
66830;SDS011;53739;44.224;22.528;2022-08-02T05:20:45;4.10;;;2.83;;
66830;SDS011;53739;44.224;22.528;2022-08-02T05:23:12;7.30;;;3.40;;
66830;SDS011;53739;44.224;22.528;2022-08-02T05:32:13;7.35;;;3.70;;
66830;SDS011;53739;44.224;22.528;2022-08-02T05:37:50;8.15;;;4.55;;
66830;SDS011;53739;44.224;22.528;2022-08-02T05:40:22;6.55;;;3.33;;
66830;SDS011;53739;44.224;22.528;2022-08-02T05:42:52;4.80;;;3.58;;
66830;SDS011;53739;44.224;22.528;2022-08-02T05:45:18;7.90;;;3.58;;
66830;SDS011;53739;44.224;22.528;2022-08-02T05:47:48;9.65;;;3.30;;
66830;SDS011;53739;44.224;22.528;2022-08-02T05:50:14;5.07;;;3.13;;
66830;SDS011;53739;44.224;22.528;2022-08-02T05:55:48;6.35;;;3.28;;
66830;SDS011;53739;44.224;22.528;2022-08-02T06:01:27;4.72;;;3.00;;
66830;SDS011;53739;44.224;22.528;2022-08-02T06:03:58;5.00;;;3.07;;
66830;SDS011;53739;44.224;22.528;2022-08-02T06:06:25;6.40;;;3.00;;
66830;SDS011;53739;44.224;22.528;2022-08-02T06:09:00;7.00;;;2.95;;
66830;SDS011;53739;44.224;22.528;2022-08-02T06:11:35;7.22;;;2.90;;
66830;SDS011;53739;44.224;22.528;2022-08-02T06:14:04;3.85;;;2.30;;
66830;SDS011;53739;44.224;22.528;2022-08-02T06:16:31;4.85;;;2.83;;
66830;SDS011;53739;44.224;22.528;2022-08-02T06:18:59;4.97;;;2.92;;
66830;SDS011;53739;44.224;22.528;2022-08-02T06:21:26;6.35;;;3.13;;
66830;SDS011;53739;44.224;22.528;2022-08-02T06:23:53;4.43;;;3.03;;
66830;SDS011;53739;44.224;22.528;2022-08-02T06:26:23;5.43;;;3.28;;
66830;SDS011;53739;44.224;22.528;2022-08-02T06:28:50;7.50;;;2.65;;
66830;SDS011;53739;44.224;22.528;2022-08-02T06:31:17;4.35;;;2.58;;
66830;SDS011;53739;44.224;22.528;2022-08-02T06:33:43;6.22;;;2.53;;
66830;SDS011;53739;44.224;22.528;2022-08-02T06:36:14;7.03;;;3.45;;
66830;SDS011;53739;44.224;22.528;2022-08-02T06:38:56;4.25;;;2.50;;
66830;SDS011;53739;44.224;22.528;2022-08-02T06:41:30;7.68;;;3.28;;
66830;SDS011;53739;44.224;22.528;2022-08-02T06:44:05;6.07;;;3.22;;
66830;SDS011;53739;44.224;22.528;2022-08-02T06:46:32;5.80;;;2.70;;
66830;SDS011;53739;44.224;22.528;2022-08-02T06:48:59;6.05;;;3.25;;
66830;SDS011;53739;44.224;22.528;2022-08-02T06:51:26;8.25;;;2.70;;
66830;SDS011;53739;44.224;22.528;2022-08-02T06:54:00;4.03;;;2.30;;
66830;SDS011;53739;44.224;22.528;2022-08-02T06:56:37;3.97;;;2.30;;
66830;SDS011;53739;44.224;22.528;2022-08-02T06:59:03;5.45;;;2.88;;
66830;SDS011;53739;44.224;22.528;2022-08-02T07:01:29;3.67;;;2.00;;
66830;SDS011;53739;44.224;22.528;2022-08-02T07:03:55;5.07;;;2.47;;
66830;SDS011;53739;44.224;22.528;2022-08-02T07:13:18;3.50;;;2.10;;
66830;SDS011;53739;44.224;22.528;2022-08-02T07:15:47;3.03;;;2.03;;
66830;SDS011;53739;44.224;22.528;2022-08-02T07:18:16;3.13;;;1.45;;
66830;SDS011;53739;44.224;22.528;2022-08-02T07:20:45;3.25;;;1.80;;
66830;SDS011;53739;44.224;22.528;2022-08-02T07:23:11;3.17;;;1.80;;
66830;SDS011;53739;44.224;22.528;2022-08-02T07:25:37;3.80;;;1.67;;
66830;SDS011;53739;44.224;22.528;2022-08-02T07:28:03;2.28;;;1.67;;
66830;SDS011;53739;44.224;22.528;2022-08-02T07:37:21;2.72;;;1.77;;
66830;SDS011;53739;44.224;22.528;2022-08-02T07:39:54;3.67;;;1.60;;
66830;SDS011;53739;44.224;22.528;2022-08-02T07:42:20;2.63;;;1.58;;
66830;SDS011;53739;44.224;22.528;2022-08-02T07:45:04;2.33;;;1.40;;
66830;SDS011;53739;44.224;22.528;2022-08-02T07:47:53;2.53;;;1.48;;
66830;SDS011;53739;44.224;22.528;2022-08-02T07:50:37;2.05;;;1.40;;
66830;SDS011;53739;44.224;22.528;2022-08-02T07:53:03;2.78;;;1.50;;
66830;SDS011;53739;44.224;22.528;2022-08-02T07:55:35;1.98;;;1.20;;
66830;SDS011;53739;44.224;22.528;2022-08-02T07:58:04;2.25;;;1.40;;
66830;SDS011;53739;44.224;22.528;2022-08-02T08:00:34;1.73;;;1.00;;
66830;SDS011;53739;44.224;22.528;2022-08-02T08:13:10;3.80;;;1.40;;
66830;SDS011;53739;44.224;22.528;2022-08-02T08:25:58;2.20;;;1.10;;
66830;SDS011;53739;44.224;22.528;2022-08-02T08:32:32;4.00;;;1.48;;
66830;SDS011;53739;44.224;22.528;2022-08-02T08:42:01;1.80;;;1.40;;
66830;SDS011;53739;44.224;22.528;2022-08-02T08:55:26;1.92;;;1.20;;
66830;SDS011;53739;44.224;22.528;2022-08-02T09:47:26;1.98;;;1.25;;
66830;SDS011;53739;44.224;22.528;2022-08-02T09:53:15;1.75;;;1.20;;
66830;SDS011;53739;44.224;22.528;2022-08-02T09:59:51;2.20;;;1.50;;
66830;SDS011;53739;44.224;22.528;2022-08-02T10:02:21;4.05;;;1.50;;
66830;SDS011;53739;44.224;22.528;2022-08-02T10:21:31;2.85;;;1.48;;
66830;SDS011;53739;44.224;22.528;2022-08-02T10:24:33;3.05;;;1.63;;
66830;SDS011;53739;44.224;22.528;2022-08-02T10:30:09;5.00;;;1.50;;
66830;SDS011;53739;44.224;22.528;2022-08-02T10:36:52;3.45;;;1.50;;
66830;SDS011;53739;44.224;22.528;2022-08-02T10:42:47;2.92;;;1.40;;
66830;SDS011;53739;44.224;22.528;2022-08-02T10:49:02;3.80;;;1.58;;
66830;SDS011;53739;44.224;22.528;2022-08-02T10:55:31;2.45;;;1.30;;
66830;SDS011;53739;44.224;22.528;2022-08-02T10:58:40;2.72;;;1.60;;
66830;SDS011;53739;44.224;22.528;2022-08-02T11:17:51;4.80;;;2.55;;
66830;SDS011;53739;44.224;22.528;2022-08-02T11:30:01;3.83;;;1.40;;
66830;SDS011;53739;44.224;22.528;2022-08-02T11:32:49;1.90;;;1.30;;
66830;SDS011;53739;44.224;22.528;2022-08-02T11:38:14;2.30;;;1.60;;
66830;SDS011;53739;44.224;22.528;2022-08-02T11:44:40;5.03;;;1.85;;
66830;SDS011;53739;44.224;22.528;2022-08-02T11:47:06;2.10;;;1.33;;
66830;SDS011;53739;44.224;22.528;2022-08-02T11:49:36;2.78;;;1.40;;
66830;SDS011;53739;44.224;22.528;2022-08-02T11:52:06;2.45;;;1.48;;
66830;SDS011;53739;44.224;22.528;2022-08-02T11:58:27;3.72;;;1.52;;
66830;SDS011;53739;44.224;22.528;2022-08-02T12:01:13;2.25;;;1.40;;
66830;SDS011;53739;44.224;22.528;2022-08-02T12:03:41;2.50;;;1.63;;
66830;SDS011;53739;44.224;22.528;2022-08-02T12:06:07;3.40;;;1.42;;
66830;SDS011;53739;44.224;22.528;2022-08-02T12:08:39;1.58;;;1.17;;
66830;SDS011;53739;44.224;22.528;2022-08-02T12:11:05;4.35;;;1.63;;
66830;SDS011;53739;44.224;22.528;2022-08-02T12:13:44;3.80;;;1.65;;
66830;SDS011;53739;44.224;22.528;2022-08-02T12:16:11;2.40;;;1.40;;
66830;SDS011;53739;44.224;22.528;2022-08-02T12:18:59;2.05;;;1.40;;
66830;SDS011;53739;44.224;22.528;2022-08-02T12:25:15;2.60;;;1.50;;
66830;SDS011;53739;44.224;22.528;2022-08-02T12:27:47;2.00;;;1.27;;
66830;SDS011;53739;44.224;22.528;2022-08-02T12:30:16;1.52;;;1.17;;
66830;SDS011;53739;44.224;22.528;2022-08-02T12:33:09;1.83;;;1.33;;
66830;SDS011;53739;44.224;22.528;2022-08-02T12:35:38;2.50;;;1.30;;
66830;SDS011;53739;44.224;22.528;2022-08-02T12:38:08;3.60;;;1.23;;
66830;SDS011;53739;44.224;22.528;2022-08-02T12:40:35;4.03;;;1.60;;
66830;SDS011;53739;44.224;22.528;2022-08-02T12:43:05;2.38;;;1.20;;
66830;SDS011;53739;44.224;22.528;2022-08-02T12:52:43;2.15;;;1.42;;
66830;SDS011;53739;44.224;22.528;2022-08-02T12:55:23;1.67;;;1.30;;
66830;SDS011;53739;44.224;22.528;2022-08-02T13:00:37;4.00;;;1.63;;
66830;SDS011;53739;44.224;22.528;2022-08-02T13:03:10;2.22;;;1.42;;
66830;SDS011;53739;44.224;22.528;2022-08-02T13:05:40;2.97;;;1.83;;
66830;SDS011;53739;44.224;22.528;2022-08-02T13:11:48;3.78;;;1.65;;
66830;SDS011;53739;44.224;22.528;2022-08-02T13:14:20;3.30;;;1.65;;
66830;SDS011;53739;44.224;22.528;2022-08-02T13:16:56;3.07;;;1.70;;
66830;SDS011;53739;44.224;22.528;2022-08-02T13:19:47;2.13;;;1.40;;
66830;SDS011;53739;44.224;22.528;2022-08-02T13:22:23;2.00;;;1.40;;
66830;SDS011;53739;44.224;22.528;2022-08-02T13:24:52;3.92;;;1.60;;
66830;SDS011;53739;44.224;22.528;2022-08-02T13:27:24;3.10;;;1.45;;
66830;SDS011;53739;44.224;22.528;2022-08-02T13:29:53;3.65;;;1.70;;
66830;SDS011;53739;44.224;22.528;2022-08-02T13:39:07;3.60;;;1.45;;
66830;SDS011;53739;44.224;22.528;2022-08-02T13:41:39;1.48;;;1.25;;
66830;SDS011;53739;44.224;22.528;2022-08-02T13:44:08;4.45;;;1.45;;
66830;SDS011;53739;44.224;22.528;2022-08-02T13:53:35;2.95;;;1.67;;
66830;SDS011;53739;44.224;22.528;2022-08-02T13:56:07;3.65;;;1.60;;
66830;SDS011;53739;44.224;22.528;2022-08-02T13:58:33;2.28;;;1.45;;
66830;SDS011;53739;44.224;22.528;2022-08-02T14:00:59;2.47;;;1.70;;
66830;SDS011;53739;44.224;22.528;2022-08-02T14:03:25;2.30;;;1.50;;
66830;SDS011;53739;44.224;22.528;2022-08-02T14:15:24;5.65;;;1.80;;
66830;SDS011;53739;44.224;22.528;2022-08-02T14:24:42;2.78;;;1.80;;
66830;SDS011;53739;44.224;22.528;2022-08-02T14:31:22;1.95;;;1.42;;
66830;SDS011;53739;44.224;22.528;2022-08-02T14:33:54;3.00;;;1.70;;
66830;SDS011;53739;44.224;22.528;2022-08-02T14:37:04;2.17;;;1.60;;
66830;SDS011;53739;44.224;22.528;2022-08-02T14:39:33;2.42;;;1.48;;
66830;SDS011;53739;44.224;22.528;2022-08-02T14:45:57;3.42;;;1.60;;
66830;SDS011;53739;44.224;22.528;2022-08-02T14:55:04;4.70;;;1.40;;
66830;SDS011;53739;44.224;22.528;2022-08-02T14:57:31;2.67;;;1.70;;
66830;SDS011;53739;44.224;22.528;2022-08-02T14:59:57;2.20;;;1.40;;
66830;SDS011;53739;44.224;22.528;2022-08-02T15:02:41;2.92;;;1.42;;
66830;SDS011;53739;44.224;22.528;2022-08-02T15:08:50;2.50;;;1.60;;
66830;SDS011;53739;44.224;22.528;2022-08-02T15:11:28;2.05;;;1.50;;
66830;SDS011;53739;44.224;22.528;2022-08-02T15:33:59;3.15;;;2.25;;
66830;SDS011;53739;44.224;22.528;2022-08-02T16:00:02;4.00;;;1.60;;
66830;SDS011;53739;44.224;22.528;2022-08-02T16:26:41;2.00;;;1.50;;
66830;SDS011;53739;44.224;22.528;2022-08-02T16:29:22;3.97;;;1.75;;
66830;SDS011;53739;44.224;22.528;2022-08-02T16:32:02;2.87;;;1.73;;
66830;SDS011;53739;44.224;22.528;2022-08-02T16:34:48;4.38;;;1.70;;
66830;SDS011;53739;44.224;22.528;2022-08-02T16:37:14;3.03;;;1.95;;
66830;SDS011;53739;44.224;22.528;2022-08-02T16:39:48;2.25;;;1.58;;
66830;SDS011;53739;44.224;22.528;2022-08-02T16:46:08;8.25;;;1.98;;
66830;SDS011;53739;44.224;22.528;2022-08-02T16:48:50;2.90;;;1.70;;
66830;SDS011;53739;44.224;22.528;2022-08-02T16:57:59;4.85;;;1.88;;
66830;SDS011;53739;44.224;22.528;2022-08-02T17:00:25;7.43;;;1.75;;
66830;SDS011;53739;44.224;22.528;2022-08-02T17:03:12;4.32;;;1.83;;
66830;SDS011;53739;44.224;22.528;2022-08-02T17:05:43;10.50;;;2.13;;
66830;SDS011;53739;44.224;22.528;2022-08-02T17:08:10;4.18;;;2.17;;
66830;SDS011;53739;44.224;22.528;2022-08-02T17:10:36;6.05;;;2.30;;
66830;SDS011;53739;44.224;22.528;2022-08-02T17:13:06;2.85;;;1.80;;
66830;SDS011;53739;44.224;22.528;2022-08-02T17:15:42;4.30;;;2.05;;
66830;SDS011;53739;44.224;22.528;2022-08-02T17:18:14;7.50;;;1.88;;
66830;SDS011;53739;44.224;22.528;2022-08-02T17:41:20;3.83;;;1.98;;
66830;SDS011;53739;44.224;22.528;2022-08-02T17:44:03;4.03;;;2.20;;
66830;SDS011;53739;44.224;22.528;2022-08-02T17:53:12;4.22;;;2.35;;
66830;SDS011;53739;44.224;22.528;2022-08-02T17:55:39;2.95;;;1.80;;
66830;SDS011;53739;44.224;22.528;2022-08-02T17:58:14;5.10;;;2.40;;
66830;SDS011;53739;44.224;22.528;2022-08-02T18:00:40;7.13;;;2.17;;
66830;SDS011;53739;44.224;22.528;2022-08-02T18:03:06;5.32;;;2.42;;
66830;SDS011;53739;44.224;22.528;2022-08-02T18:05:32;3.10;;;2.13;;
66830;SDS011;53739;44.224;22.528;2022-08-02T18:11:22;6.03;;;2.20;;
66830;SDS011;53739;44.224;22.528;2022-08-02T18:13:48;4.40;;;2.35;;
66830;SDS011;53739;44.224;22.528;2022-08-02T18:16:49;6.15;;;2.17;;
66830;SDS011;53739;44.224;22.528;2022-08-02T18:19:24;3.72;;;2.00;;
66830;SDS011;53739;44.224;22.528;2022-08-02T18:21:51;5.55;;;2.90;;
66830;SDS011;53739;44.224;22.528;2022-08-02T18:24:17;8.75;;;3.03;;
66830;SDS011;53739;44.224;22.528;2022-08-02T18:26:43;3.88;;;2.67;;
66830;SDS011;53739;44.224;22.528;2022-08-02T18:32:30;4.25;;;2.53;;
66830;SDS011;53739;44.224;22.528;2022-08-02T18:34:59;3.78;;;2.20;;
66830;SDS011;53739;44.224;22.528;2022-08-02T18:37:26;5.03;;;2.75;;
66830;SDS011;53739;44.224;22.528;2022-08-02T18:39:52;4.50;;;2.45;;
66830;SDS011;53739;44.224;22.528;2022-08-02T18:42:19;5.15;;;2.63;;
66830;SDS011;53739;44.224;22.528;2022-08-02T18:44:45;6.50;;;2.60;;
66830;SDS011;53739;44.224;22.528;2022-08-02T18:47:12;5.65;;;2.75;;
66830;SDS011;53739;44.224;22.528;2022-08-02T18:49:38;8.70;;;2.45;;
66830;SDS011;53739;44.224;22.528;2022-08-02T18:52:04;6.10;;;2.65;;
66830;SDS011;53739;44.224;22.528;2022-08-02T18:54:33;3.65;;;2.42;;
66830;SDS011;53739;44.224;22.528;2022-08-02T18:57:08;6.95;;;3.10;;
66830;SDS011;53739;44.224;22.528;2022-08-02T18:59:49;4.95;;;2.55;;
66830;SDS011;53739;44.224;22.528;2022-08-02T19:02:36;6.93;;;2.80;;
66830;SDS011;53739;44.224;22.528;2022-08-02T19:05:14;4.57;;;2.55;;
66830;SDS011;53739;44.224;22.528;2022-08-02T19:07:40;4.65;;;2.67;;
66830;SDS011;53739;44.224;22.528;2022-08-02T19:10:06;6.03;;;2.58;;
66830;SDS011;53739;44.224;22.528;2022-08-02T19:12:34;4.53;;;2.50;;
66830;SDS011;53739;44.224;22.528;2022-08-02T19:15:00;4.03;;;2.42;;
66830;SDS011;53739;44.224;22.528;2022-08-02T19:17:27;5.63;;;2.22;;
66830;SDS011;53739;44.224;22.528;2022-08-02T19:23:15;5.53;;;2.53;;
66830;SDS011;53739;44.224;22.528;2022-08-02T19:25:41;4.93;;;2.58;;
66830;SDS011;53739;44.224;22.528;2022-08-02T19:28:12;4.97;;;2.33;;
66830;SDS011;53739;44.224;22.528;2022-08-02T19:30:47;4.18;;;2.50;;
66830;SDS011;53739;44.224;22.528;2022-08-02T19:33:16;3.78;;;2.60;;
66830;SDS011;53739;44.224;22.528;2022-08-02T19:35:54;4.75;;;2.30;;
66830;SDS011;53739;44.224;22.528;2022-08-02T19:38:24;4.20;;;2.50;;
66830;SDS011;53739;44.224;22.528;2022-08-02T19:40:53;6.13;;;2.33;;
66830;SDS011;53739;44.224;22.528;2022-08-02T19:43:42;4.15;;;2.05;;
66830;SDS011;53739;44.224;22.528;2022-08-02T19:46:14;4.43;;;2.57;;
66830;SDS011;53739;44.224;22.528;2022-08-02T19:52:22;4.50;;;2.60;;
66830;SDS011;53739;44.224;22.528;2022-08-02T19:55:00;5.32;;;2.10;;
66830;SDS011;53739;44.224;22.528;2022-08-02T20:05:02;6.53;;;2.67;;
66830;SDS011;53739;44.224;22.528;2022-08-02T20:07:53;6.25;;;2.47;;
66830;SDS011;53739;44.224;22.528;2022-08-02T20:10:23;10.07;;;2.58;;
66830;SDS011;53739;44.224;22.528;2022-08-02T20:13:04;5.70;;;2.97;;
66830;SDS011;53739;44.224;22.528;2022-08-02T20:15:43;6.22;;;2.55;;
66830;SDS011;53739;44.224;22.528;2022-08-02T20:18:23;7.32;;;2.75;;
66830;SDS011;53739;44.224;22.528;2022-08-02T20:20:56;4.88;;;2.55;;
66830;SDS011;53739;44.224;22.528;2022-08-02T20:23:24;7.68;;;2.60;;
66830;SDS011;53739;44.224;22.528;2022-08-02T20:25:52;5.93;;;3.00;;
66830;SDS011;53739;44.224;22.528;2022-08-02T20:28:18;6.88;;;3.15;;
66830;SDS011;53739;44.224;22.528;2022-08-02T20:30:47;6.38;;;3.15;;
66830;SDS011;53739;44.224;22.528;2022-08-02T20:33:13;4.97;;;2.55;;
66830;SDS011;53739;44.224;22.528;2022-08-02T20:35:42;4.30;;;2.50;;
66830;SDS011;53739;44.224;22.528;2022-08-02T20:38:08;4.72;;;2.70;;
66830;SDS011;53739;44.224;22.528;2022-08-02T20:44:34;6.70;;;2.60;;
66830;SDS011;53739;44.224;22.528;2022-08-02T20:47:00;6.50;;;2.85;;
66830;SDS011;53739;44.224;22.528;2022-08-02T20:49:27;4.80;;;2.67;;
66830;SDS011;53739;44.224;22.528;2022-08-02T20:51:53;5.10;;;2.60;;
66830;SDS011;53739;44.224;22.528;2022-08-02T20:54:19;5.50;;;2.85;;
66830;SDS011;53739;44.224;22.528;2022-08-02T20:56:45;5.00;;;2.85;;
66830;SDS011;53739;44.224;22.528;2022-08-02T20:59:12;6.97;;;2.67;;
66830;SDS011;53739;44.224;22.528;2022-08-02T21:01:38;4.30;;;2.40;;
66830;SDS011;53739;44.224;22.528;2022-08-02T21:04:04;4.25;;;2.50;;
66830;SDS011;53739;44.224;22.528;2022-08-02T21:06:30;3.90;;;2.55;;
66830;SDS011;53739;44.224;22.528;2022-08-02T21:08:59;5.57;;;3.10;;
66830;SDS011;53739;44.224;22.528;2022-08-02T21:11:25;5.43;;;2.70;;
66830;SDS011;53739;44.224;22.528;2022-08-02T21:13:51;8.07;;;3.00;;
66830;SDS011;53739;44.224;22.528;2022-08-02T21:16:17;4.22;;;2.30;;
66830;SDS011;53739;44.224;22.528;2022-08-02T21:18:43;5.70;;;2.70;;
66830;SDS011;53739;44.224;22.528;2022-08-02T21:21:10;9.40;;;3.08;;
66830;SDS011;53739;44.224;22.528;2022-08-02T21:23:36;4.95;;;2.90;;
66830;SDS011;53739;44.224;22.528;2022-08-02T21:26:03;4.13;;;2.35;;
66830;SDS011;53739;44.224;22.528;2022-08-02T21:28:30;3.83;;;2.60;;
66830;SDS011;53739;44.224;22.528;2022-08-02T21:30:56;4.30;;;2.60;;
66830;SDS011;53739;44.224;22.528;2022-08-02T21:33:23;6.88;;;2.55;;
66830;SDS011;53739;44.224;22.528;2022-08-02T21:35:49;7.20;;;2.95;;
66830;SDS011;53739;44.224;22.528;2022-08-02T21:38:16;4.95;;;2.58;;
66830;SDS011;53739;44.224;22.528;2022-08-02T21:40:42;8.43;;;2.90;;
66830;SDS011;53739;44.224;22.528;2022-08-02T21:43:09;5.25;;;2.78;;